Time;durP1;ratioP1;P1;durP2;ratioP2;P2;SDS_P1;SDS_P2;PMS_P1;PMS_P2;Temp;Humidity;BMP_temperature;BMP_pressure;BME280_temperature;BME280_humidity;BME280_pressure;Samples;Min_cycle;Max_cycle;Signal;HPM_P1;HPM_P2
2021/12/17 00:05:00;;;;;;;93.90;36.42;;;5.90;99.90;;;;;;5006703;28;20092;-60
2021/12/17 00:07:27;;;;;;;103.15;36.17;;;5.90;99.90;;;;;;5008271;28;20477;-61
2021/12/17 00:09:55;;;;;;;91.82;35.28;;;5.80;99.90;;;;;;5022389;28;20058;-61
2021/12/17 00:12:23;;;;;;;74.82;31.20;;;5.80;99.90;;;;;;5011777;28;20033;-60
2021/12/17 00:14:50;;;;;;;80.63;33.08;;;5.70;99.90;;;;;;5008570;28;20030;-60
2021/12/17 00:17:23;;;;;;;77.65;31.38;;;5.70;99.90;;;;;;5008696;28;20038;-61
2021/12/17 00:52:40;;;;;;;346.40;36.15;;;5.00;99.90;;;;;;5009742;28;20516;-61
2021/12/17 00:55:07;;;;;;;465.77;43.58;;;4.90;99.90;;;;;;5008125;28;20052;-60
2021/12/17 00:57:39;;;;;;;744.05;55.08;;;4.90;99.90;;;;;;5009389;28;20065;-61
2021/12/17 01:00:13;;;;;;;240.18;33.78;;;4.90;99.90;;;;;;5009686;28;20379;-61
2021/12/17 01:02:41;;;;;;;427.25;42.50;;;4.80;99.90;;;;;;5006140;28;20485;-60
2021/12/17 01:05:12;;;;;;;345.52;36.92;;;4.80;99.90;;;;;;5005227;28;20029;-61
2021/12/17 01:07:40;;;;;;;322.33;35.33;;;4.80;99.90;;;;;;5006556;28;20072;-60
2021/12/17 01:10:09;;;;;;;274.55;33.13;;;4.80;99.90;;;;;;5008445;28;20034;-60
2021/12/17 01:12:35;;;;;;;228.55;32.85;;;4.70;99.90;;;;;;5004875;28;20033;-60
2021/12/17 01:15:01;;;;;;;364.65;36.70;;;4.70;99.90;;;;;;5007938;28;20037;-62
2021/12/17 01:17:31;;;;;;;496.85;40.13;;;4.70;99.90;;;;;;5002689;28;20033;-60
2021/12/17 01:20:19;;;;;;;637.38;48.60;;;4.60;99.90;;;;;;5007640;28;20148;-60
2021/12/17 01:25:33;;;;;;;569.97;41.88;;;4.50;99.90;;;;;;5007431;28;20033;-60
2021/12/17 01:36:12;;;;;;;319.83;30.13;;;4.50;99.90;;;;;;5004999;28;20124;-60
2021/12/17 01:44:06;;;;;;;511.83;39.80;;;4.60;99.90;;;;;;5005179;28;20112;-60
2021/12/17 01:46:35;;;;;;;371.23;32.38;;;4.60;99.90;;;;;;5006088;28;20533;-61
2021/12/17 01:55:48;;;;;;;316.33;30.88;;;4.50;99.90;;;;;;5006199;28;20557;-61
2021/12/17 02:00:46;;;;;;;210.50;27.40;;;4.60;99.90;;;;;;5005999;28;20037;-61
2021/12/17 02:03:14;;;;;;;174.77;26.52;;;4.50;99.90;;;;;;5022616;28;20018;-61
2021/12/17 02:05:39;;;;;;;248.18;30.95;;;4.60;99.90;;;;;;5008037;28;20032;-60
2021/12/17 02:08:06;;;;;;;223.35;24.08;;;4.60;99.90;;;;;;5002075;28;20445;-61
2021/12/17 02:32:17;;;;;;;210.35;24.42;;;4.30;99.90;;;;;;5005045;28;20041;-60
2021/12/17 02:37:30;;;;;;;323.52;29.08;;;4.30;99.90;;;;;;5002217;28;20026;-60
2021/12/17 02:45:31;;;;;;;227.05;24.77;;;4.30;99.90;;;;;;4997667;28;20018;-61
2021/12/17 02:45:36;;;;;;;151.32;22.75;;;4.30;99.90;;;;;;5006639;28;20416;-61
2021/12/17 02:48:07;;;;;;;131.18;21.27;;;4.30;99.90;;;;;;5008425;28;20397;-61
2021/12/17 02:50:37;;;;;;;;;;;4.40;99.90;;;;;;5007576;28;20113;-61
2021/12/17 02:53:07;;;;;;;230.30;24.35;;;4.40;99.90;;;;;;5003296;28;19917;-60
2021/12/17 02:55:41;;;;;;;285.33;26.63;;;4.40;99.90;;;;;;5003459;28;20525;-61
2021/12/17 02:58:07;;;;;;;251.00;25.35;;;4.40;99.90;;;;;;5008753;28;20022;-60
2021/12/17 03:00:35;;;;;;;351.42;27.42;;;4.40;99.90;;;;;;5006922;28;20473;-61
2021/12/17 03:03:04;;;;;;;336.80;26.20;;;4.40;99.90;;;;;;5003985;28;20044;-62
2021/12/17 03:05:30;;;;;;;359.38;26.80;;;4.30;99.90;;;;;;5003664;28;20084;-61
2021/12/17 03:07:57;;;;;;;361.30;26.20;;;4.30;99.90;;;;;;5003080;28;20374;-60
2021/12/17 03:10:24;;;;;;;283.13;23.83;;;4.30;99.90;;;;;;5005641;28;20030;-60
2021/12/17 03:12:55;;;;;;;201.45;21.42;;;4.30;99.90;;;;;;5002391;28;20444;-60
2021/12/17 03:23:42;;;;;;;218.23;22.50;;;4.30;99.90;;;;;;5003789;28;20044;-60
2021/12/17 03:26:15;;;;;;;252.00;23.38;;;4.30;99.90;;;;;;5004567;28;20097;-60
2021/12/17 03:28:43;;;;;;;242.90;21.58;;;4.30;99.90;;;;;;5002584;28;20049;-60
2021/12/17 03:31:11;;;;;;;273.88;23.70;;;4.30;99.90;;;;;;5005989;28;20045;-60
2021/12/17 03:33:41;;;;;;;254.25;23.50;;;4.30;99.90;;;;;;5004325;28;20038;-60
2021/12/17 03:36:07;;;;;;;325.17;24.73;;;4.30;99.90;;;;;;5006288;28;20054;-61
2021/12/17 03:38:33;;;;;;;451.02;27.80;;;4.30;99.90;;;;;;5005482;28;20128;-60
2021/12/17 03:41:14;;;;;;;402.42;28.48;;;4.30;99.90;;;;;;5007595;28;20478;-60
2021/12/17 03:43:40;;;;;;;;;;;4.20;99.90;;;;;;5009169;28;20037;-60
2021/12/17 03:46:06;;;;;;;355.95;24.58;;;4.20;99.90;;;;;;5004598;28;19914;-60
2021/12/17 03:48:36;;;;;;;364.33;27.80;;;4.10;99.90;;;;;;5000068;28;20559;-60
2021/12/17 03:51:02;;;;;;;243.88;22.45;;;4.10;99.90;;;;;;5023920;28;20026;-63
2021/12/17 03:53:28;;;;;;;318.40;24.15;;;4.00;99.90;;;;;;5007252;28;20056;-61
2021/12/17 03:55:54;;;;;;;382.15;28.77;;;4.00;99.90;;;;;;5006675;28;20058;-60
2021/12/17 03:58:19;;;;;;;370.70;26.00;;;4.00;99.90;;;;;;5009292;28;20461;-60
2021/12/17 04:00:46;;;;;;;355.65;25.50;;;4.00;99.90;;;;;;5005374;28;20108;-60
2021/12/17 04:03:12;;;;;;;286.77;22.95;;;4.00;99.90;;;;;;5011353;28;20029;-60
2021/12/17 04:05:37;;;;;;;280.50;24.98;;;3.90;99.90;;;;;;5008255;28;20022;-61
2021/12/17 04:08:03;;;;;;;175.88;20.63;;;3.90;99.90;;;;;;5009943;28;20026;-60
2021/12/17 04:10:38;;;;;;;246.55;22.25;;;3.90;99.90;;;;;;5006869;28;20030;-61
2021/12/17 04:13:15;;;;;;;150.20;20.55;;;3.90;99.90;;;;;;5007751;28;20426;-61
2021/12/17 04:15:43;;;;;;;112.07;19.35;;;3.90;99.90;;;;;;5009099;28;20057;-60
2021/12/17 04:18:10;;;;;;;140.88;18.83;;;3.90;99.90;;;;;;5007074;28;20029;-61
2021/12/17 04:20:36;;;;;;;198.45;21.40;;;4.00;99.90;;;;;;5002794;28;20028;-60
2021/12/17 04:23:02;;;;;;;114.88;17.05;;;4.00;99.90;;;;;;5008445;28;20018;-60
2021/12/17 04:25:28;;;;;;;131.95;18.67;;;4.00;99.90;;;;;;5009868;28;20030;-60
2021/12/17 04:27:55;;;;;;;125.43;17.55;;;4.10;99.90;;;;;;5010160;28;20073;-60
2021/12/17 04:30:21;;;;;;;141.45;18.58;;;4.10;99.90;;;;;;5007960;28;20026;-60
2021/12/17 04:32:47;;;;;;;92.18;17.50;;;4.00;99.90;;;;;;5008242;28;20026;-60
2021/12/17 04:35:12;;;;;;;172.15;17.75;;;4.00;99.90;;;;;;5009481;28;20133;-60
2021/12/17 04:37:38;;;;;;;182.55;19.48;;;4.00;99.90;;;;;;5010048;28;20064;-60
2021/12/17 04:40:04;;;;;;;165.90;18.40;;;3.90;99.90;;;;;;5011373;28;20494;-60
2021/12/17 04:42:42;;;;;;;103.55;15.57;;;3.90;99.90;;;;;;5009599;28;20022;-60
2021/12/17 04:45:07;;;;;;;80.53;14.73;;;3.90;99.90;;;;;;5009394;28;20075;-61
2021/12/17 04:58:30;;;;;;;141.60;14.45;;;4.00;99.90;;;;;;5010069;28;20104;-60
2021/12/17 05:01:01;;;;;;;137.35;14.65;;;3.90;99.90;;;;;;5006419;28;20983;-60
2021/12/17 05:03:27;;;;;;;69.72;16.10;;;3.90;99.90;;;;;;5008064;28;20022;-60
2021/12/17 05:05:52;;;;;;;110.68;14.23;;;3.90;99.90;;;;;;5012477;28;20040;-60
2021/12/17 05:08:21;;;;;;;128.43;15.95;;;3.90;99.90;;;;;;5007117;28;20081;-60
2021/12/17 05:21:25;;;;;;;246.70;18.10;;;3.70;99.90;;;;;;5006791;28;20029;-62
2021/12/17 05:23:52;;;;;;;139.80;14.93;;;3.60;99.90;;;;;;5006718;28;20137;-62
2021/12/17 05:26:19;;;;;;;168.10;16.08;;;3.60;99.90;;;;;;5005903;28;20062;-62
2021/12/17 05:28:47;;;;;;;136.95;14.40;;;3.60;99.90;;;;;;5006750;28;20073;-61
2021/12/17 05:31:15;;;;;;;152.90;15.38;;;3.60;99.90;;;;;;5011251;28;20133;-62
2021/12/17 05:33:40;;;;;;;255.48;16.77;;;3.50;99.90;;;;;;5008315;28;20507;-62
2021/12/17 05:36:06;;;;;;;199.73;17.00;;;3.50;99.90;;;;;;5006861;28;20072;-62
2021/12/17 05:38:32;;;;;;;141.60;14.30;;;3.40;99.90;;;;;;5010328;28;20172;-60
2021/12/17 05:40:58;;;;;;;234.68;19.17;;;3.40;99.90;;;;;;5008465;28;20026;-61
2021/12/17 05:43:24;;;;;;;246.70;16.90;;;3.40;99.90;;;;;;5008001;28;20033;-62
2021/12/17 05:48:26;;;;;;;223.48;15.65;;;3.30;99.90;;;;;;5002230;28;20022;-62
2021/12/17 05:50:55;;;;;;;174.93;20.30;;;3.30;99.90;;;;;;5007650;28;20110;-62
2021/12/17 05:53:22;;;;;;;129.80;14.23;;;3.30;99.90;;;;;;5006460;28;20085;-62
2021/12/17 05:55:48;;;;;;;252.50;19.50;;;3.30;99.90;;;;;;5006459;28;20026;-62
2021/12/17 05:58:14;;;;;;;111.97;14.50;;;3.30;99.90;;;;;;5005353;28;20084;-62
2021/12/17 06:00:41;;;;;;;264.50;19.10;;;3.30;99.90;;;;;;5005294;28;20034;-62
2021/12/17 06:03:08;;;;;;;116.60;15.38;;;3.30;99.90;;;;;;5008547;28;20075;-62
2021/12/17 06:05:34;;;;;;;206.75;17.70;;;3.30;99.90;;;;;;5010066;28;20044;-62
2021/12/17 06:07:59;;;;;;;308.27;21.60;;;3.30;99.90;;;;;;5008148;28;20136;-62
2021/12/17 06:10:25;;;;;;;204.60;18.38;;;3.30;99.90;;;;;;5004031;28;20117;-62
2021/12/17 06:12:51;;;;;;;228.13;17.92;;;3.30;99.90;;;;;;5006791;28;20034;-62
2021/12/17 06:15:19;;;;;;;122.65;14.40;;;3.20;99.90;;;;;;5007855;28;20048;-63
2021/12/17 06:17:45;;;;;;;133.52;15.10;;;3.20;99.90;;;;;;5003718;28;20041;-62
2021/12/17 06:20:13;;;;;;;76.72;12.75;;;3.20;99.90;;;;;;5006431;28;20026;-62
2021/12/17 06:22:39;;;;;;;118.22;13.60;;;3.20;99.90;;;;;;5009766;28;20018;-62
2021/12/17 06:25:06;;;;;;;123.45;14.60;;;3.20;99.90;;;;;;5020817;28;20026;-62
2021/12/17 06:27:32;;;;;;;191.93;20.10;;;3.20;99.90;;;;;;5005121;28;20033;-62
2021/12/17 06:29:58;;;;;;;150.85;17.77;;;3.20;99.90;;;;;;5010213;28;20017;-62
2021/12/17 06:32:25;;;;;;;177.23;17.77;;;3.20;99.90;;;;;;5005198;28;20038;-63
2021/12/17 06:34:51;;;;;;;116.88;15.30;;;3.20;99.90;;;;;;5007738;28;20030;-62
2021/12/17 06:37:18;;;;;;;163.63;17.67;;;3.20;99.90;;;;;;5006161;28;20033;-61
2021/12/17 06:39:45;;;;;;;182.90;19.33;;;3.20;99.90;;;;;;5004910;28;20018;-62
2021/12/17 06:42:11;;;;;;;181.57;18.73;;;3.20;99.90;;;;;;5004760;28;20026;-62
2021/12/17 06:44:38;;;;;;;240.40;19.65;;;3.20;99.90;;;;;;5003982;28;20065;-61
2021/12/17 06:47:09;;;;;;;234.73;20.40;;;3.10;99.90;;;;;;5006687;28;20088;-62
2021/12/17 06:55:05;;;;;;;56.50;11.35;;;3.00;99.90;;;;;;5007900;28;20041;-62
2021/12/17 07:00:34;;;;;;;41.10;10.00;;;3.10;99.90;;;;;;5004036;28;20041;-62
2021/12/17 07:11:33;;;;;;;106.88;11.68;;;2.90;99.90;;;;;;5005971;28;20092;-62
2021/12/17 07:22:46;;;;;;;170.68;17.20;;;2.70;99.90;;;;;;5006106;28;20032;-62
2021/12/17 07:33:10;;;;;;;94.20;12.55;;;2.70;99.90;;;;;;5007223;28;20032;-62
2021/12/17 07:35:42;;;;;;;48.58;8.43;;;2.80;99.90;;;;;;5004610;28;20034;-61
2021/12/17 07:40:54;;;;;;;83.95;11.27;;;2.90;99.90;;;;;;5003761;28;20036;-60
2021/12/17 07:43:37;;;;;;;67.97;11.60;;;2.90;99.90;;;;;;5006605;28;20033;-61
2021/12/17 07:46:08;;;;;;;46.38;9.93;;;3.00;99.90;;;;;;5006353;28;20073;-60
2021/12/17 07:48:34;;;;;;;56.47;8.38;;;3.00;99.90;;;;;;5006429;28;20389;-62
2021/12/17 07:51:02;;;;;;;88.38;13.48;;;3.00;99.90;;;;;;5000795;28;20018;-63
2021/12/17 07:53:30;;;;;;;50.28;9.77;;;3.10;99.90;;;;;;4999548;28;20124;-62
2021/12/17 07:55:56;;;;;;;96.53;11.65;;;3.10;99.90;;;;;;5005533;28;20034;-62
2021/12/17 07:58:21;;;;;;;60.35;11.27;;;3.20;99.90;;;;;;5004521;28;20030;-62
2021/12/17 08:00:47;;;;;;;42.95;11.07;;;3.10;99.90;;;;;;5005080;28;20492;-62
2021/12/17 08:03:14;;;;;;;73.70;11.40;;;3.10;99.90;;;;;;5002810;28;20113;-62
2021/12/17 08:05:42;;;;;;;44.95;11.50;;;3.10;99.90;;;;;;5000882;28;20011;-63
2021/12/17 08:08:09;;;;;;;22.58;10.45;;;3.10;99.90;;;;;;5005056;28;20505;-62
2021/12/17 08:10:34;;;;;;;16.48;8.95;;;3.10;99.90;;;;;;5009897;28;20034;-62
2021/12/17 08:13:00;;;;;;;25.55;11.02;;;3.10;99.90;;;;;;5004560;28;20030;-62
2021/12/17 08:15:34;;;;;;;26.88;13.18;;;3.20;99.90;;;;;;5004689;28;20046;-62
2021/12/17 08:26:20;;;;;;;18.95;13.65;;;3.20;99.90;;;;;;5004646;28;20374;-62
2021/12/17 08:31:18;;;;;;;13.32;11.02;;;3.30;99.90;;;;;;5010590;28;20375;-62
2021/12/17 08:33:44;;;;;;;11.82;9.73;;;3.40;99.90;;;;;;5015950;28;20644;-63
2021/12/17 08:36:11;;;;;;;12.00;10.18;;;3.50;99.90;;;;;;5009783;28;20698;-62
2021/12/17 08:38:36;;;;;;;11.95;9.98;;;3.60;99.90;;;;;;5009352;28;20049;-61
2021/12/17 08:41:02;;;;;;;13.38;10.77;;;3.60;99.90;;;;;;5006936;28;20348;-62
2021/12/17 08:43:28;;;;;;;11.05;9.85;;;3.70;99.90;;;;;;5006558;28;20030;-62
2021/12/17 08:45:54;;;;;;;10.75;9.38;;;3.70;99.90;;;;;;5005207;28;20026;-62
2021/12/17 08:48:20;;;;;;;9.93;8.50;;;3.80;99.90;;;;;;5008358;28;20037;-63
2021/12/17 08:50:51;;;;;;;11.68;8.73;;;3.80;99.90;;;;;;5008995;28;20026;-59
2021/12/17 08:53:16;;;;;;;11.57;8.93;;;3.90;99.90;;;;;;5005164;28;20022;-61
2021/12/17 08:55:42;;;;;;;12.95;8.90;;;4.00;99.90;;;;;;5007442;28;20374;-59
2021/12/17 08:58:12;;;;;;;9.30;7.97;;;4.00;99.90;;;;;;5001705;28;20034;-62
2021/12/17 09:00:38;;;;;;;10.90;8.88;;;4.10;99.90;;;;;;5006073;28;20053;-62
2021/12/17 09:03:04;;;;;;;12.90;9.70;;;4.20;99.90;;;;;;5006452;28;20058;-62
2021/12/17 09:05:30;;;;;;;15.98;9.15;;;4.20;99.90;;;;;;5010726;28;20062;-62
2021/12/17 09:07:55;;;;;;;13.43;8.82;;;4.30;99.90;;;;;;5009940;28;20034;-62
2021/12/17 09:10:22;;;;;;;10.68;8.77;;;4.30;99.90;;;;;;5011865;28;20045;-62
2021/12/17 09:12:49;;;;;;;10.38;8.75;;;4.30;99.90;;;;;;5009207;28;20058;-62
2021/12/17 09:15:15;;;;;;;12.52;9.60;;;4.40;99.90;;;;;;5007627;28;20069;-62
2021/12/17 09:17:40;;;;;;;9.27;8.07;;;4.40;99.90;;;;;;5007995;28;20457;-62
2021/12/17 09:20:06;;;;;;;10.98;8.68;;;4.40;99.90;;;;;;5008643;28;20072;-62
2021/12/17 09:22:33;;;;;;;12.02;9.38;;;4.50;99.90;;;;;;5007355;28;20061;-63
2021/12/17 09:24:59;;;;;;;10.75;9.55;;;4.60;99.90;;;;;;5007548;28;20030;-62
2021/12/17 09:27:25;;;;;;;12.38;10.10;;;4.50;99.90;;;;;;5008403;28;20048;-62
2021/12/17 09:29:50;;;;;;;12.90;11.63;;;4.40;99.90;;;;;;5010665;28;20068;-62
2021/12/17 09:32:16;;;;;;;15.40;10.02;;;4.40;99.90;;;;;;5006688;28;20022;-62
2021/12/17 09:34:42;;;;;;;14.90;12.70;;;4.40;99.90;;;;;;5009383;28;20048;-62
2021/12/17 09:37:07;;;;;;;13.35;10.18;;;4.40;99.90;;;;;;5005917;28;20485;-62
2021/12/17 09:39:33;;;;;;;13.18;11.60;;;4.40;99.90;;;;;;5006563;28;20569;-64
2021/12/17 09:41:59;;;;;;;13.27;11.23;;;4.40;99.90;;;;;;5005963;28;20023;-62
2021/12/17 09:44:25;;;;;;;16.70;13.65;;;4.50;99.90;;;;;;5007606;28;20037;-62
2021/12/17 09:46:51;;;;;;;13.63;12.18;;;4.50;99.90;;;;;;5015640;28;20115;-62
2021/12/17 09:49:17;;;;;;;13.13;11.50;;;4.50;99.90;;;;;;5006535;28;20116;-62
2021/12/17 09:51:44;;;;;;;13.77;12.27;;;4.60;99.90;;;;;;5006619;28;20058;-62
2021/12/17 09:54:12;;;;;;;13.35;11.32;;;4.70;99.90;;;;;;5005270;28;20441;-62
2021/12/17 09:56:38;;;;;;;12.25;10.90;;;4.70;99.90;;;;;;5007532;28;20044;-62
2021/12/17 09:59:04;;;;;;;12.07;10.88;;;4.80;99.90;;;;;;5013722;28;20026;-62
2021/12/17 10:01:30;;;;;;;13.35;11.45;;;4.80;99.90;;;;;;5005314;28;20018;-62
2021/12/17 10:04:31;;;;;;;12.98;11.68;;;4.90;99.90;;;;;;5008489;28;20398;-62
2021/12/17 10:07:24;;;;;;;13.23;11.88;;;5.00;99.90;;;;;;5006212;28;20117;-62
2021/12/17 10:10:04;;;;;;;12.95;11.55;;;5.00;99.90;;;;;;5005363;28;20474;-62
2021/12/17 10:12:33;;;;;;;12.27;11.07;;;5.10;99.90;;;;;;5004260;28;20076;-62
2021/12/17 10:15:09;;;;;;;12.15;10.95;;;5.10;99.90;;;;;;5007065;28;20018;-62
2021/12/17 10:17:53;;;;;;;12.45;11.23;;;5.20;99.90;;;;;;5010125;28;20052;-60
2021/12/17 10:20:21;;;;;;;14.15;11.35;;;5.20;99.90;;;;;;5009955;28;20032;-62
2021/12/17 10:22:58;;;;;;;15.55;12.75;;;5.20;99.90;;;;;;5005784;28;20026;-62
2021/12/17 10:25:24;;;;;;;14.65;13.25;;;5.20;99.90;;;;;;5004940;28;20125;-62
2021/12/17 10:27:59;;;;;;;16.05;14.38;;;5.20;99.90;;;;;;5006796;28;20041;-62
2021/12/17 10:30:26;;;;;;;13.13;11.82;;;5.30;99.90;;;;;;5006088;28;20390;-60
2021/12/17 10:32:55;;;;;;;12.02;10.93;;;5.20;99.90;;;;;;5007633;28;20022;-62
2021/12/17 10:35:29;;;;;;;9.75;8.85;;;5.20;99.90;;;;;;5002479;28;20034;-62
2021/12/17 10:38:00;;;;;;;10.38;9.38;;;5.20;99.90;;;;;;4995701;28;20177;-59
2021/12/17 10:40:28;;;;;;;9.90;8.57;;;5.20;99.90;;;;;;5006470;28;20578;-62
2021/12/17 10:43:05;;;;;;;12.30;9.18;;;5.10;99.90;;;;;;5007994;28;20763;-62
2021/12/17 10:45:44;;;;;;;10.57;9.68;;;5.10;99.90;;;;;;5003943;28;20058;-62
2021/12/17 10:49:17;;;;;;;9.35;8.55;;;5.10;99.90;;;;;;5007869;28;20483;-62
2021/12/17 10:51:28;;;;;;;8.95;8.07;;;5.10;99.90;;;;;;4994725;28;20046;-60
2021/12/17 10:54:02;;;;;;;12.40;11.02;;;5.10;99.90;;;;;;5003550;28;20030;-64
2021/12/17 10:56:32;;;;;;;11.10;10.10;;;5.10;99.90;;;;;;5005231;28;20401;-67
2021/12/17 10:59:00;;;;;;;12.90;11.15;;;5.20;99.90;;;;;;5002674;28;20105;-64
2021/12/17 11:01:35;;;;;;;10.93;9.93;;;5.20;99.90;;;;;;5020301;28;20073;-67
2021/12/17 11:04:06;;;;;;;7.13;6.53;;;5.20;99.90;;;;;;5010636;28;20023;-67
2021/12/17 11:06:41;;;;;;;;;;;5.30;99.90;;;;;;5005081;28;20025;-66
2021/12/17 11:09:07;;;;;;;8.82;7.93;;;5.20;99.90;;;;;;5001469;28;19932;-65
2021/12/17 11:11:40;;;;;;;10.38;9.38;;;5.20;99.90;;;;;;5004233;28;20509;-65
2021/12/17 11:14:06;;;;;;;10.02;9.13;;;5.30;99.90;;;;;;5007034;28;20034;-65
2021/12/17 11:16:34;;;;;;;8.93;8.13;;;5.40;99.90;;;;;;5005081;28;20026;-65
2021/12/17 11:19:03;;;;;;;8.40;7.60;;;5.50;99.90;;;;;;5005132;28;20441;-65
2021/12/17 11:21:30;;;;;;;8.93;7.75;;;5.60;99.90;;;;;;5004240;28;20034;-65
2021/12/17 11:23:57;;;;;;;7.18;6.50;;;5.70;99.90;;;;;;5004158;28;20026;-64
2021/12/17 11:26:24;;;;;;;8.88;8.07;;;5.80;99.90;;;;;;5010799;28;20039;-65
2021/12/17 11:28:51;;;;;;;9.27;8.48;;;5.90;99.90;;;;;;5005184;28;20034;-66
2021/12/17 11:31:17;;;;;;;10.27;9.32;;;5.90;99.90;;;;;;5006663;28;20067;-65
2021/12/17 11:33:45;;;;;;;9.85;8.95;;;6.00;99.90;;;;;;5004305;28;20505;-64
2021/12/17 11:36:11;;;;;;;12.63;9.63;;;6.00;99.90;;;;;;5005204;28;20018;-64
2021/12/17 11:38:55;;;;;;;10.25;9.25;;;6.00;99.90;;;;;;5007111;28;20030;-63
2021/12/17 11:41:48;;;;;;;12.85;11.55;;;6.10;99.90;;;;;;5002789;28;20108;-64
2021/12/17 11:44:15;;;;;;;14.80;13.05;;;6.00;99.90;;;;;;5005984;28;20114;-64
2021/12/17 11:46:40;;;;;;;14.95;12.48;;;5.90;99.90;;;;;;5008853;28;20084;-63
2021/12/17 11:49:13;;;;;;;15.40;13.77;;;5.90;99.90;;;;;;5002975;28;20033;-64
2021/12/17 11:51:40;;;;;;;15.75;14.07;;;5.80;99.90;;;;;;5018531;28;20037;-64
2021/12/17 11:54:09;;;;;;;18.58;14.00;;;5.70;99.90;;;;;;5010177;28;20073;-66
2021/12/17 11:56:49;;;;;;;14.23;12.75;;;5.70;99.90;;;;;;5003479;28;20030;-66
2021/12/17 11:59:27;;;;;;;14.30;12.90;;;5.60;99.90;;;;;;5005152;28;20034;-65
2021/12/17 12:02:04;;;;;;;15.30;13.80;;;5.50;99.90;;;;;;5002354;28;20029;-66
2021/12/17 12:04:32;;;;;;;15.75;14.15;;;5.50;99.90;;;;;;5002663;28;20022;-65
2021/12/17 12:07:33;;;;;;;16.10;14.50;;;5.50;99.90;;;;;;5011087;28;20568;-65
2021/12/17 12:10:12;;;;;;;16.93;13.77;;;5.50;99.90;;;;;;5008763;28;20034;-65
2021/12/17 12:12:38;;;;;;;16.73;14.90;;;5.50;99.90;;;;;;5007299;28;20629;-65
2021/12/17 12:15:27;;;;;;;15.70;14.10;;;5.50;99.90;;;;;;5006281;28;20033;-66
2021/12/17 12:18:06;;;;;;;14.98;13.05;;;5.60;99.90;;;;;;5009018;28;20029;-65
2021/12/17 12:20:55;;;;;;;16.55;13.80;;;5.70;99.90;;;;;;5009969;28;20065;-63
2021/12/17 12:23:32;;;;;;;14.10;12.70;;;5.90;99.90;;;;;;5007152;28;20076;-66
2021/12/17 12:26:11;;;;;;;17.65;12.70;;;6.00;99.90;;;;;;5007948;28;20041;-66
2021/12/17 12:28:55;;;;;;;14.15;12.65;;;6.10;99.90;;;;;;5001239;28;20053;-65
2021/12/17 12:31:27;;;;;;;16.05;13.75;;;6.10;99.90;;;;;;5010255;28;20057;-65
2021/12/17 12:34:08;;;;;;;17.13;13.43;;;6.00;99.90;;;;;;5002726;28;20029;-65
2021/12/17 12:36:54;;;;;;;13.27;11.98;;;6.00;99.90;;;;;;5005316;28;20057;-65
2021/12/17 12:39:35;;;;;;;14.70;12.30;;;6.10;99.90;;;;;;5009911;28;20380;-66
2021/12/17 12:42:03;;;;;;;13.45;11.82;;;6.10;99.90;;;;;;5007628;28;20026;-65
2021/12/17 12:44:44;;;;;;;12.38;11.15;;;6.10;99.90;;;;;;5008972;28;20116;-65
2021/12/17 12:47:31;;;;;;;12.13;10.95;;;6.00;99.90;;;;;;5005056;28;20113;-65
2021/12/17 12:50:02;;;;;;;13.25;12.05;;;6.10;99.90;;;;;;5003309;28;20069;-65
2021/12/17 12:52:31;;;;;;;11.73;10.65;;;6.10;99.90;;;;;;5007045;28;20145;-66
2021/12/17 12:55:03;;;;;;;11.73;10.63;;;6.10;99.90;;;;;;5009504;28;20042;-65
2021/12/17 12:57:35;;;;;;;11.48;10.27;;;6.10;99.90;;;;;;5012554;28;20167;-66
2021/12/17 13:00:13;;;;;;;11.38;10.48;;;6.20;99.90;;;;;;5020347;28;20014;-66
2021/12/17 13:02:42;;;;;;;11.98;10.88;;;6.20;99.90;;;;;;5008282;28;20030;-65
2021/12/17 13:05:09;;;;;;;13.57;12.30;;;6.20;99.90;;;;;;5007909;28;20552;-65
2021/12/17 13:07:59;;;;;;;14.90;13.48;;;6.20;99.90;;;;;;5004592;28;20030;-66
2021/12/17 13:10:33;;;;;;;10.55;9.50;;;6.10;99.90;;;;;;5005498;28;20041;-66
2021/12/17 13:13:18;;;;;;;11.27;10.27;;;6.10;99.90;;;;;;5007222;28;20033;-66
2021/12/17 13:16:43;;;;;;;11.25;10.15;;;6.10;99.90;;;;;;5006898;28;20030;-66
2021/12/17 13:23:50;;;;;;;13.02;9.98;;;6.30;99.90;;;;;;5008838;28;20037;-66
2021/12/17 13:26:19;;;;;;;10.20;9.30;;;6.30;99.90;;;;;;5006769;28;20041;-65
2021/12/17 13:28:50;;;;;;;10.00;9.10;;;6.30;99.90;;;;;;5007369;28;20096;-66
2021/12/17 13:31:43;;;;;;;9.63;8.73;;;6.40;99.90;;;;;;5005743;28;20030;-65
2021/12/17 13:34:31;;;;;;;9.48;8.50;;;6.70;99.90;;;;;;5006939;28;20425;-65
2021/12/17 13:36:58;;;;;;;9.40;8.40;;;6.80;99.90;;;;;;5005915;28;20292;-65
2021/12/17 13:39:33;;;;;;;9.35;8.52;;;6.90;99.90;;;;;;5005228;28;20132;-65
2021/12/17 13:42:01;;;;;;;9.60;8.73;;;6.90;99.90;;;;;;5002043;28;20053;-65
2021/12/17 13:44:27;;;;;;;9.80;8.90;;;6.90;99.90;;;;;;5008072;28;20038;-65
2021/12/17 13:46:53;;;;;;;10.73;8.30;;;6.90;99.90;;;;;;5008610;28;20039;-65
2021/12/17 13:49:20;;;;;;;9.50;8.60;;;6.90;99.90;;;;;;5006337;28;20053;-65
2021/12/17 13:51:46;;;;;;;8.82;8.07;;;6.80;99.90;;;;;;5009552;28;20185;-65
2021/12/17 13:54:12;;;;;;;9.93;8.95;;;6.80;99.90;;;;;;5005435;28;20041;-65
2021/12/17 13:56:37;;;;;;;11.13;10.02;;;6.70;99.90;;;;;;5004547;28;20021;-65
2021/12/17 13:59:03;;;;;;;11.20;10.10;;;6.40;99.90;;;;;;5011696;28;20042;-65
2021/12/17 14:01:29;;;;;;;10.82;9.82;;;6.30;99.90;;;;;;5005038;28;20037;-65
2021/12/17 14:03:54;;;;;;;10.77;9.70;;;6.30;99.90;;;;;;5004417;28;20030;-65
2021/12/17 14:06:28;;;;;;;9.70;8.80;;;6.20;99.90;;;;;;5003372;28;20128;-65
2021/12/17 14:08:53;;;;;;;10.02;9.02;;;6.20;99.90;;;;;;5007114;28;20503;-65
2021/12/17 14:11:28;;;;;;;9.82;8.82;;;6.20;99.90;;;;;;5018019;28;20153;-65
2021/12/17 14:13:53;;;;;;;9.60;8.77;;;6.20;99.90;;;;;;5004697;28;20060;-66
2021/12/17 14:16:33;;;;;;;9.32;8.52;;;6.20;99.90;;;;;;5004347;28;20037;-65
2021/12/17 14:19:01;;;;;;;8.98;8.15;;;6.20;99.90;;;;;;5010266;28;20039;-65
2021/12/17 14:21:31;;;;;;;9.30;8.50;;;6.20;99.90;;;;;;5007557;28;20030;-65
2021/12/17 14:23:58;;;;;;;10.48;9.50;;;6.20;99.90;;;;;;5008509;28;20041;-66
2021/12/17 14:26:31;;;;;;;9.73;8.75;;;6.20;99.90;;;;;;5003703;28;20496;-65
2021/12/17 14:29:09;;;;;;;;;;;6.10;99.90;;;;;;4999718;28;20026;-65
2021/12/17 14:31:35;;;;;;;8.48;7.68;;;6.10;99.90;;;;;;5007265;28;19916;-66
2021/12/17 14:34:01;;;;;;;9.07;8.18;;;6.00;99.90;;;;;;5003606;28;20034;-65
2021/12/17 14:36:28;;;;;;;10.25;9.25;;;5.90;99.90;;;;;;5009996;28;20033;-65
2021/12/17 14:39:04;;;;;;;9.30;8.40;;;5.90;99.90;;;;;;5007154;28;20022;-65
2021/12/17 14:41:44;;;;;;;10.15;8.95;;;5.90;99.90;;;;;;5007358;28;20080;-65
2021/12/17 14:46:57;;;;;;;9.82;8.82;;;5.70;99.90;;;;;;5003475;28;20549;-65
2021/12/17 14:57:16;;;;;;;11.23;10.10;;;5.60;99.90;;;;;;5007973;28;20033;-65
2021/12/17 15:03:24;;;;;;;11.02;9.88;;;5.30;99.90;;;;;;5005971;28;20060;-65
2021/12/17 15:05:51;;;;;;;11.02;9.88;;;5.30;99.90;;;;;;5007189;28;20022;-65
2021/12/17 15:08:17;;;;;;;10.90;9.90;;;5.30;99.90;;;;;;5001090;28;20119;-65
2021/12/17 15:10:42;;;;;;;11.13;9.43;;;5.20;99.90;;;;;;5003228;28;20459;-65
2021/12/17 15:13:08;;;;;;;9.73;8.82;;;5.20;99.90;;;;;;5005960;28;20038;-65
2021/12/17 15:15:36;;;;;;;9.25;8.38;;;5.20;99.90;;;;;;5005318;28;20389;-65
2021/12/17 15:18:05;;;;;;;10.52;9.52;;;5.20;99.90;;;;;;5004255;28;20487;-66
2021/12/17 15:20:33;;;;;;;10.48;9.38;;;5.20;99.90;;;;;;5005687;28;20042;-65
2021/12/17 15:23:01;;;;;;;10.10;9.05;;;5.20;99.90;;;;;;5006366;28;20029;-65
2021/12/17 15:25:28;;;;;;;10.15;9.15;;;5.10;99.90;;;;;;5007353;28;20076;-65
2021/12/17 15:27:54;;;;;;;11.90;10.70;;;5.10;99.90;;;;;;5005889;28;20033;-65
2021/12/17 15:30:29;;;;;;;12.07;10.05;;;5.00;99.90;;;;;;5005904;28;20567;-65
2021/12/17 15:32:55;;;;;;;14.45;10.63;;;4.90;99.90;;;;;;5002536;28;20011;-65
2021/12/17 15:35:23;;;;;;;12.32;11.07;;;4.80;99.90;;;;;;5006804;28;20501;-65
2021/12/17 15:37:51;;;;;;;15.05;13.50;;;4.70;99.90;;;;;;5024600;28;20076;-65
2021/12/17 15:40:17;;;;;;;15.93;14.32;;;4.60;99.90;;;;;;5009298;28;20037;-65
2021/12/17 15:42:43;;;;;;;14.48;13.07;;;4.60;99.90;;;;;;5011444;28;20023;-65
2021/12/17 15:45:12;;;;;;;13.50;12.10;;;4.60;99.90;;;;;;5010805;28;20092;-65
2021/12/17 15:47:38;;;;;;;13.80;12.45;;;4.50;99.90;;;;;;5011949;28;20084;-65
2021/12/17 15:50:06;;;;;;;13.02;11.73;;;4.50;99.90;;;;;;5002336;28;20026;-65
2021/12/17 15:52:34;;;;;;;14.30;10.50;;;4.50;99.90;;;;;;5011295;28;20041;-65
2021/12/17 15:55:00;;;;;;;13.15;11.75;;;4.50;99.90;;;;;;5006794;28;20045;-65
2021/12/17 15:57:25;;;;;;;13.57;12.27;;;4.50;99.90;;;;;;5008768;28;20022;-64
2021/12/17 15:59:52;;;;;;;12.93;11.55;;;4.40;99.90;;;;;;5008112;28;20104;-65